sensor_id;sensor_type;location;lat;lon;timestamp;P1;durP1;ratioP1;P2;durP2;ratioP2
13959;SDS011;7052;51.050;3.716;2024-03-06T00:02:12;9.70;;;8.43;;
13959;SDS011;7052;51.050;3.716;2024-03-06T00:04:39;9.03;;;8.07;;
13959;SDS011;7052;51.050;3.716;2024-03-06T00:07:10;8.57;;;7.70;;
13959;SDS011;7052;51.050;3.716;2024-03-06T00:09:37;9.77;;;8.37;;
13959;SDS011;7052;51.050;3.716;2024-03-06T00:12:04;10.40;;;7.87;;
13959;SDS011;7052;51.050;3.716;2024-03-06T00:14:33;9.43;;;7.20;;
13959;SDS011;7052;51.050;3.716;2024-03-06T00:17:02;9.70;;;8.00;;
13959;SDS011;7052;51.050;3.716;2024-03-06T00:19:29;9.80;;;7.50;;
13959;SDS011;7052;51.050;3.716;2024-03-06T00:21:57;8.40;;;7.53;;
13959;SDS011;7052;51.050;3.716;2024-03-06T00:24:28;8.10;;;7.30;;
13959;SDS011;7052;51.050;3.716;2024-03-06T00:26:58;8.77;;;7.67;;
13959;SDS011;7052;51.050;3.716;2024-03-06T00:29:26;9.87;;;7.80;;
13959;SDS011;7052;51.050;3.716;2024-03-06T00:31:53;8.37;;;7.57;;
13959;SDS011;7052;51.050;3.716;2024-03-06T00:34:20;8.83;;;7.73;;
13959;SDS011;7052;51.050;3.716;2024-03-06T00:36:47;10.87;;;7.83;;
13959;SDS011;7052;51.050;3.716;2024-03-06T00:39:15;8.27;;;7.47;;
13959;SDS011;7052;51.050;3.716;2024-03-06T00:41:45;7.93;;;7.03;;
13959;SDS011;7052;51.050;3.716;2024-03-06T00:44:13;8.87;;;7.97;;
13959;SDS011;7052;51.050;3.716;2024-03-06T00:46:41;10.00;;;8.10;;
13959;SDS011;7052;51.050;3.716;2024-03-06T00:49:10;10.60;;;7.97;;
13959;SDS011;7052;51.050;3.716;2024-03-06T00:51:39;9.40;;;8.10;;
13959;SDS011;7052;51.050;3.716;2024-03-06T00:54:06;9.57;;;7.57;;
13959;SDS011;7052;51.050;3.716;2024-03-06T00:56:36;9.57;;;8.23;;
13959;SDS011;7052;51.050;3.716;2024-03-06T00:59:09;8.63;;;7.73;;
13959;SDS011;7052;51.050;3.716;2024-03-06T01:01:36;9.30;;;8.10;;
13959;SDS011;7052;51.050;3.716;2024-03-06T01:04:04;8.83;;;7.93;;
13959;SDS011;7052;51.050;3.716;2024-03-06T01:06:31;9.30;;;8.40;;
13959;SDS011;7052;51.050;3.716;2024-03-06T01:08:58;9.83;;;8.77;;
13959;SDS011;7052;51.050;3.716;2024-03-06T01:11:25;9.53;;;8.50;;
13959;SDS011;7052;51.050;3.716;2024-03-06T01:13:53;12.33;;;8.70;;
13959;SDS011;7052;51.050;3.716;2024-03-06T01:16:22;11.43;;;8.03;;
13959;SDS011;7052;51.050;3.716;2024-03-06T01:18:51;9.20;;;8.30;;
13959;SDS011;7052;51.050;3.716;2024-03-06T01:21:18;9.20;;;8.30;;
13959;SDS011;7052;51.050;3.716;2024-03-06T01:23:46;9.57;;;8.57;;
13959;SDS011;7052;51.050;3.716;2024-03-06T01:26:13;9.93;;;8.20;;
13959;SDS011;7052;51.050;3.716;2024-03-06T01:28:40;9.73;;;8.50;;
13959;SDS011;7052;51.050;3.716;2024-03-06T01:31:07;10.67;;;8.73;;
13959;SDS011;7052;51.050;3.716;2024-03-06T01:33:35;9.67;;;8.43;;
13959;SDS011;7052;51.050;3.716;2024-03-06T01:36:03;10.10;;;8.77;;
13959;SDS011;7052;51.050;3.716;2024-03-06T01:38:30;10.00;;;8.97;;
13959;SDS011;7052;51.050;3.716;2024-03-06T01:40:57;9.63;;;8.67;;
13959;SDS011;7052;51.050;3.716;2024-03-06T01:43:25;10.13;;;9.13;;
13959;SDS011;7052;51.050;3.716;2024-03-06T01:45:54;9.97;;;8.90;;
13959;SDS011;7052;51.050;3.716;2024-03-06T01:48:22;11.20;;;9.30;;
13959;SDS011;7052;51.050;3.716;2024-03-06T01:50:54;9.97;;;8.93;;
13959;SDS011;7052;51.050;3.716;2024-03-06T01:53:24;11.30;;;9.60;;
13959;SDS011;7052;51.050;3.716;2024-03-06T01:55:53;11.63;;;9.33;;
13959;SDS011;7052;51.050;3.716;2024-03-06T01:58:20;10.73;;;8.87;;
13959;SDS011;7052;51.050;3.716;2024-03-06T02:00:48;13.17;;;9.63;;
13959;SDS011;7052;51.050;3.716;2024-03-06T02:03:15;12.30;;;10.20;;
13959;SDS011;7052;51.050;3.716;2024-03-06T02:05:44;11.33;;;9.83;;
13959;SDS011;7052;51.050;3.716;2024-03-06T02:08:14;11.13;;;10.00;;
13959;SDS011;7052;51.050;3.716;2024-03-06T02:10:41;10.80;;;9.60;;
13959;SDS011;7052;51.050;3.716;2024-03-06T02:13:11;10.97;;;9.83;;
13959;SDS011;7052;51.050;3.716;2024-03-06T02:15:39;10.63;;;9.53;;
13959;SDS011;7052;51.050;3.716;2024-03-06T02:18:06;10.93;;;9.80;;
13959;SDS011;7052;51.050;3.716;2024-03-06T02:20:39;11.67;;;10.57;;
13959;SDS011;7052;51.050;3.716;2024-03-06T02:23:06;11.50;;;10.40;;
13959;SDS011;7052;51.050;3.716;2024-03-06T02:25:33;10.83;;;9.67;;
13959;SDS011;7052;51.050;3.716;2024-03-06T02:28:00;13.33;;;10.73;;
13959;SDS011;7052;51.050;3.716;2024-03-06T02:30:29;12.63;;;11.20;;
13959;SDS011;7052;51.050;3.716;2024-03-06T02:33:01;12.20;;;10.80;;
13959;SDS011;7052;51.050;3.716;2024-03-06T02:35:29;13.77;;;10.77;;
13959;SDS011;7052;51.050;3.716;2024-03-06T02:37:59;11.77;;;10.57;;
13959;SDS011;7052;51.050;3.716;2024-03-06T02:40:27;12.80;;;10.73;;
13959;SDS011;7052;51.050;3.716;2024-03-06T02:42:54;12.93;;;11.20;;
13959;SDS011;7052;51.050;3.716;2024-03-06T02:45:22;12.83;;;11.33;;
13959;SDS011;7052;51.050;3.716;2024-03-06T02:47:49;13.47;;;11.23;;
13959;SDS011;7052;51.050;3.716;2024-03-06T02:50:17;12.63;;;11.23;;
13959;SDS011;7052;51.050;3.716;2024-03-06T02:52:46;12.43;;;11.23;;
13959;SDS011;7052;51.050;3.716;2024-03-06T02:55:14;13.07;;;11.03;;
13959;SDS011;7052;51.050;3.716;2024-03-06T02:57:42;12.73;;;11.27;;
13959;SDS011;7052;51.050;3.716;2024-03-06T03:00:09;13.60;;;12.20;;
13959;SDS011;7052;51.050;3.716;2024-03-06T03:02:39;14.37;;;11.93;;
13959;SDS011;7052;51.050;3.716;2024-03-06T03:05:12;13.27;;;11.97;;
13959;SDS011;7052;51.050;3.716;2024-03-06T03:07:39;14.17;;;12.07;;
13959;SDS011;7052;51.050;3.716;2024-03-06T03:10:08;14.00;;;12.30;;
13959;SDS011;7052;51.050;3.716;2024-03-06T03:12:39;15.13;;;12.63;;
13959;SDS011;7052;51.050;3.716;2024-03-06T03:15:06;14.63;;;11.80;;
13959;SDS011;7052;51.050;3.716;2024-03-06T03:17:34;14.53;;;12.70;;
13959;SDS011;7052;51.050;3.716;2024-03-06T03:20:02;14.17;;;12.50;;
13959;SDS011;7052;51.050;3.716;2024-03-06T03:22:35;16.37;;;12.80;;
13959;SDS011;7052;51.050;3.716;2024-03-06T03:25:03;13.87;;;12.27;;
13959;SDS011;7052;51.050;3.716;2024-03-06T03:27:33;13.10;;;11.70;;
13959;SDS011;7052;51.050;3.716;2024-03-06T03:30:17;13.47;;;12.13;;
13959;SDS011;7052;51.050;3.716;2024-03-06T03:32:49;13.40;;;11.93;;
13959;SDS011;7052;51.050;3.716;2024-03-06T03:35:16;13.53;;;12.13;;
13959;SDS011;7052;51.050;3.716;2024-03-06T03:37:46;13.93;;;12.53;;
13959;SDS011;7052;51.050;3.716;2024-03-06T03:40:13;14.60;;;12.77;;
13959;SDS011;7052;51.050;3.716;2024-03-06T03:42:40;16.43;;;12.57;;
13959;SDS011;7052;51.050;3.716;2024-03-06T03:45:10;17.43;;;13.47;;
13959;SDS011;7052;51.050;3.716;2024-03-06T03:47:39;18.17;;;14.10;;
13959;SDS011;7052;51.050;3.716;2024-03-06T03:50:11;18.33;;;13.97;;
13959;SDS011;7052;51.050;3.716;2024-03-06T03:52:39;15.37;;;13.77;;
13959;SDS011;7052;51.050;3.716;2024-03-06T03:55:08;14.70;;;13.20;;
13959;SDS011;7052;51.050;3.716;2024-03-06T03:57:35;16.97;;;14.33;;
13959;SDS011;7052;51.050;3.716;2024-03-06T04:00:03;14.97;;;13.03;;
13959;SDS011;7052;51.050;3.716;2024-03-06T04:02:36;15.17;;;13.53;;
13959;SDS011;7052;51.050;3.716;2024-03-06T04:05:05;14.67;;;13.07;;
13959;SDS011;7052;51.050;3.716;2024-03-06T04:07:32;16.77;;;13.80;;
13959;SDS011;7052;51.050;3.716;2024-03-06T04:09:59;16.10;;;13.53;;
13959;SDS011;7052;51.050;3.716;2024-03-06T04:12:27;16.30;;;13.47;;
13959;SDS011;7052;51.050;3.716;2024-03-06T04:14:55;16.17;;;13.83;;
13959;SDS011;7052;51.050;3.716;2024-03-06T04:17:22;15.43;;;13.60;;
13959;SDS011;7052;51.050;3.716;2024-03-06T04:19:51;16.67;;;13.83;;
13959;SDS011;7052;51.050;3.716;2024-03-06T04:22:22;16.87;;;14.43;;
13959;SDS011;7052;51.050;3.716;2024-03-06T04:24:49;22.17;;;14.00;;
13959;SDS011;7052;51.050;3.716;2024-03-06T04:27:16;17.53;;;14.10;;
13959;SDS011;7052;51.050;3.716;2024-03-06T04:29:43;14.53;;;13.03;;
13959;SDS011;7052;51.050;3.716;2024-03-06T04:32:12;14.73;;;13.23;;
13959;SDS011;7052;51.050;3.716;2024-03-06T04:34:39;15.97;;;14.03;;
13959;SDS011;7052;51.050;3.716;2024-03-06T04:37:05;16.67;;;14.10;;
13959;SDS011;7052;51.050;3.716;2024-03-06T04:39:35;14.63;;;12.83;;
13959;SDS011;7052;51.050;3.716;2024-03-06T04:42:03;16.67;;;13.30;;
13959;SDS011;7052;51.050;3.716;2024-03-06T04:44:35;16.00;;;13.80;;
13959;SDS011;7052;51.050;3.716;2024-03-06T04:47:04;15.33;;;13.73;;
13959;SDS011;7052;51.050;3.716;2024-03-06T04:49:32;19.77;;;14.37;;
13959;SDS011;7052;51.050;3.716;2024-03-06T04:52:00;19.00;;;14.17;;
13959;SDS011;7052;51.050;3.716;2024-03-06T04:54:28;18.63;;;16.73;;
13959;SDS011;7052;51.050;3.716;2024-03-06T04:56:57;16.53;;;14.00;;
13959;SDS011;7052;51.050;3.716;2024-03-06T04:59:24;15.57;;;13.93;;
13959;SDS011;7052;51.050;3.716;2024-03-06T05:01:53;15.80;;;14.10;;
13959;SDS011;7052;51.050;3.716;2024-03-06T05:04:20;16.57;;;14.60;;
13959;SDS011;7052;51.050;3.716;2024-03-06T05:06:47;17.43;;;14.03;;
13959;SDS011;7052;51.050;3.716;2024-03-06T05:09:15;17.23;;;14.67;;
13959;SDS011;7052;51.050;3.716;2024-03-06T05:11:42;16.73;;;15.00;;
13959;SDS011;7052;51.050;3.716;2024-03-06T05:14:10;17.67;;;13.97;;
13959;SDS011;7052;51.050;3.716;2024-03-06T05:16:37;17.40;;;14.80;;
13959;SDS011;7052;51.050;3.716;2024-03-06T05:19:04;17.73;;;15.13;;
13959;SDS011;7052;51.050;3.716;2024-03-06T05:21:32;18.83;;;15.10;;
13959;SDS011;7052;51.050;3.716;2024-03-06T05:24:01;16.23;;;14.53;;
13959;SDS011;7052;51.050;3.716;2024-03-06T05:26:29;16.70;;;14.43;;
13959;SDS011;7052;51.050;3.716;2024-03-06T05:28:56;18.03;;;14.90;;
13959;SDS011;7052;51.050;3.716;2024-03-06T05:31:30;16.97;;;14.97;;
13959;SDS011;7052;51.050;3.716;2024-03-06T05:34:00;16.70;;;14.77;;
13959;SDS011;7052;51.050;3.716;2024-03-06T05:36:29;16.97;;;15.17;;
13959;SDS011;7052;51.050;3.716;2024-03-06T05:38:56;17.00;;;14.60;;
13959;SDS011;7052;51.050;3.716;2024-03-06T05:41:22;19.70;;;15.20;;
13959;SDS011;7052;51.050;3.716;2024-03-06T05:43:51;18.27;;;14.83;;
13959;SDS011;7052;51.050;3.716;2024-03-06T05:46:18;17.60;;;15.37;;
13959;SDS011;7052;51.050;3.716;2024-03-06T05:48:47;19.83;;;16.23;;
13959;SDS011;7052;51.050;3.716;2024-03-06T05:51:16;20.97;;;16.03;;
13959;SDS011;7052;51.050;3.716;2024-03-06T05:53:43;20.50;;;15.63;;
13959;SDS011;7052;51.050;3.716;2024-03-06T05:56:12;16.30;;;14.60;;
13959;SDS011;7052;51.050;3.716;2024-03-06T05:58:42;20.07;;;16.50;;
13959;SDS011;7052;51.050;3.716;2024-03-06T06:01:12;20.07;;;15.77;;
13959;SDS011;7052;51.050;3.716;2024-03-06T06:03:40;17.20;;;15.37;;
13959;SDS011;7052;51.050;3.716;2024-03-06T06:06:09;18.57;;;16.20;;
13959;SDS011;7052;51.050;3.716;2024-03-06T06:08:37;19.73;;;16.07;;
13959;SDS011;7052;51.050;3.716;2024-03-06T06:11:05;20.13;;;16.20;;
13959;SDS011;7052;51.050;3.716;2024-03-06T06:13:32;20.40;;;16.07;;
13959;SDS011;7052;51.050;3.716;2024-03-06T06:16:00;22.20;;;16.83;;
13959;SDS011;7052;51.050;3.716;2024-03-06T06:18:29;18.47;;;16.27;;
13959;SDS011;7052;51.050;3.716;2024-03-06T06:20:57;19.73;;;17.37;;
13959;SDS011;7052;51.050;3.716;2024-03-06T06:23:33;28.77;;;21.87;;
13959;SDS011;7052;51.050;3.716;2024-03-06T06:26:00;23.93;;;18.87;;
13959;SDS011;7052;51.050;3.716;2024-03-06T06:28:28;23.17;;;17.93;;
13959;SDS011;7052;51.050;3.716;2024-03-06T06:30:55;22.80;;;18.17;;
13959;SDS011;7052;51.050;3.716;2024-03-06T06:33:21;22.27;;;17.67;;
13959;SDS011;7052;51.050;3.716;2024-03-06T06:35:48;21.63;;;17.50;;
13959;SDS011;7052;51.050;3.716;2024-03-06T06:38:17;24.00;;;18.03;;
13959;SDS011;7052;51.050;3.716;2024-03-06T06:40:48;23.03;;;17.53;;
13959;SDS011;7052;51.050;3.716;2024-03-06T06:43:15;23.73;;;18.20;;
13959;SDS011;7052;51.050;3.716;2024-03-06T06:45:43;23.93;;;17.57;;
13959;SDS011;7052;51.050;3.716;2024-03-06T06:48:10;21.33;;;17.87;;
13959;SDS011;7052;51.050;3.716;2024-03-06T06:50:38;20.60;;;17.37;;
13959;SDS011;7052;51.050;3.716;2024-03-06T06:53:05;25.53;;;18.27;;
13959;SDS011;7052;51.050;3.716;2024-03-06T06:55:32;24.77;;;19.77;;
13959;SDS011;7052;51.050;3.716;2024-03-06T06:58:00;27.00;;;19.80;;
13959;SDS011;7052;51.050;3.716;2024-03-06T07:00:27;28.17;;;19.97;;
13959;SDS011;7052;51.050;3.716;2024-03-06T07:02:56;24.63;;;18.33;;
13959;SDS011;7052;51.050;3.716;2024-03-06T07:05:24;26.27;;;19.20;;
13959;SDS011;7052;51.050;3.716;2024-03-06T07:07:52;21.23;;;18.33;;
13959;SDS011;7052;51.050;3.716;2024-03-06T07:10:19;24.13;;;18.90;;
13959;SDS011;7052;51.050;3.716;2024-03-06T07:12:47;26.83;;;19.77;;
13959;SDS011;7052;51.050;3.716;2024-03-06T07:15:23;25.83;;;18.57;;
13959;SDS011;7052;51.050;3.716;2024-03-06T07:17:50;21.73;;;18.27;;
13959;SDS011;7052;51.050;3.716;2024-03-06T07:20:17;28.60;;;19.03;;
13959;SDS011;7052;51.050;3.716;2024-03-06T07:22:44;22.87;;;18.50;;
13959;SDS011;7052;51.050;3.716;2024-03-06T07:25:11;24.53;;;19.67;;
13959;SDS011;7052;51.050;3.716;2024-03-06T07:27:39;27.80;;;19.77;;
13959;SDS011;7052;51.050;3.716;2024-03-06T07:30:06;23.97;;;19.20;;
13959;SDS011;7052;51.050;3.716;2024-03-06T07:32:35;30.53;;;20.93;;
13959;SDS011;7052;51.050;3.716;2024-03-06T07:35:02;27.13;;;19.27;;
13959;SDS011;7052;51.050;3.716;2024-03-06T07:37:31;22.30;;;18.57;;
13959;SDS011;7052;51.050;3.716;2024-03-06T07:40:00;20.63;;;17.27;;
13959;SDS011;7052;51.050;3.716;2024-03-06T07:42:26;30.43;;;20.83;;
13959;SDS011;7052;51.050;3.716;2024-03-06T07:44:54;36.77;;;19.90;;
13959;SDS011;7052;51.050;3.716;2024-03-06T07:47:21;23.07;;;18.07;;
13959;SDS011;7052;51.050;3.716;2024-03-06T07:49:49;26.93;;;18.70;;
13959;SDS011;7052;51.050;3.716;2024-03-06T07:52:17;25.70;;;18.50;;
13959;SDS011;7052;51.050;3.716;2024-03-06T07:54:44;28.63;;;19.73;;
13959;SDS011;7052;51.050;3.716;2024-03-06T07:57:11;26.50;;;19.70;;
13959;SDS011;7052;51.050;3.716;2024-03-06T07:59:38;28.50;;;19.50;;
13959;SDS011;7052;51.050;3.716;2024-03-06T08:02:05;37.47;;;20.23;;
13959;SDS011;7052;51.050;3.716;2024-03-06T08:04:32;29.77;;;20.10;;
13959;SDS011;7052;51.050;3.716;2024-03-06T08:07:02;32.90;;;22.23;;
13959;SDS011;7052;51.050;3.716;2024-03-06T08:09:29;36.03;;;22.00;;
13959;SDS011;7052;51.050;3.716;2024-03-06T08:11:57;32.63;;;20.87;;
13959;SDS011;7052;51.050;3.716;2024-03-06T08:14:24;35.53;;;21.70;;
13959;SDS011;7052;51.050;3.716;2024-03-06T08:16:51;31.90;;;21.73;;
13959;SDS011;7052;51.050;3.716;2024-03-06T08:19:19;34.13;;;22.97;;
13959;SDS011;7052;51.050;3.716;2024-03-06T08:21:46;34.00;;;21.63;;
13959;SDS011;7052;51.050;3.716;2024-03-06T08:24:14;30.87;;;21.87;;
13959;SDS011;7052;51.050;3.716;2024-03-06T08:26:42;29.10;;;19.83;;
13959;SDS011;7052;51.050;3.716;2024-03-06T08:29:09;30.87;;;21.57;;
13959;SDS011;7052;51.050;3.716;2024-03-06T08:31:36;35.67;;;22.40;;
13959;SDS011;7052;51.050;3.716;2024-03-06T08:34:02;30.07;;;21.03;;
13959;SDS011;7052;51.050;3.716;2024-03-06T08:36:30;35.23;;;22.50;;
13959;SDS011;7052;51.050;3.716;2024-03-06T08:38:57;34.10;;;20.90;;
13959;SDS011;7052;51.050;3.716;2024-03-06T08:41:25;31.87;;;21.13;;
13959;SDS011;7052;51.050;3.716;2024-03-06T08:43:52;32.00;;;20.90;;
13959;SDS011;7052;51.050;3.716;2024-03-06T08:46:19;33.93;;;22.67;;
13959;SDS011;7052;51.050;3.716;2024-03-06T08:48:46;37.03;;;22.43;;
13959;SDS011;7052;51.050;3.716;2024-03-06T08:51:14;45.17;;;25.60;;
13959;SDS011;7052;51.050;3.716;2024-03-06T08:53:41;31.00;;;21.03;;
13959;SDS011;7052;51.050;3.716;2024-03-06T08:56:08;46.43;;;28.40;;
13959;SDS011;7052;51.050;3.716;2024-03-06T08:58:38;33.90;;;22.80;;
13959;SDS011;7052;51.050;3.716;2024-03-06T09:01:05;34.27;;;24.30;;
13959;SDS011;7052;51.050;3.716;2024-03-06T09:03:32;33.87;;;23.47;;
13959;SDS011;7052;51.050;3.716;2024-03-06T09:06:00;33.07;;;22.50;;
13959;SDS011;7052;51.050;3.716;2024-03-06T09:08:28;32.80;;;22.00;;
13959;SDS011;7052;51.050;3.716;2024-03-06T09:10:57;31.30;;;21.00;;
13959;SDS011;7052;51.050;3.716;2024-03-06T09:13:24;41.07;;;23.80;;
13959;SDS011;7052;51.050;3.716;2024-03-06T09:15:53;32.07;;;21.47;;
13959;SDS011;7052;51.050;3.716;2024-03-06T09:18:22;33.80;;;22.60;;
13959;SDS011;7052;51.050;3.716;2024-03-06T09:20:49;43.37;;;22.40;;
13959;SDS011;7052;51.050;3.716;2024-03-06T09:23:15;34.40;;;21.67;;
13959;SDS011;7052;51.050;3.716;2024-03-06T09:25:43;31.80;;;21.40;;
13959;SDS011;7052;51.050;3.716;2024-03-06T09:28:10;31.00;;;21.33;;
13959;SDS011;7052;51.050;3.716;2024-03-06T09:30:37;37.80;;;21.17;;
13959;SDS011;7052;51.050;3.716;2024-03-06T09:33:06;30.60;;;20.00;;
13959;SDS011;7052;51.050;3.716;2024-03-06T09:35:33;28.80;;;20.30;;
13959;SDS011;7052;51.050;3.716;2024-03-06T09:38:00;29.10;;;20.60;;
13959;SDS011;7052;51.050;3.716;2024-03-06T09:40:27;29.33;;;19.80;;
13959;SDS011;7052;51.050;3.716;2024-03-06T09:42:56;34.37;;;21.57;;
13959;SDS011;7052;51.050;3.716;2024-03-06T09:45:23;30.07;;;20.03;;
13959;SDS011;7052;51.050;3.716;2024-03-06T09:47:50;29.20;;;18.23;;
13959;SDS011;7052;51.050;3.716;2024-03-06T09:50:19;27.87;;;18.33;;
13959;SDS011;7052;51.050;3.716;2024-03-06T09:52:50;25.03;;;18.10;;
13959;SDS011;7052;51.050;3.716;2024-03-06T09:55:18;32.33;;;19.53;;
13959;SDS011;7052;51.050;3.716;2024-03-06T09:57:46;31.60;;;19.27;;
13959;SDS011;7052;51.050;3.716;2024-03-06T10:00:13;23.17;;;17.33;;
13959;SDS011;7052;51.050;3.716;2024-03-06T10:02:46;23.70;;;17.67;;
13959;SDS011;7052;51.050;3.716;2024-03-06T10:05:21;25.63;;;18.40;;
13959;SDS011;7052;51.050;3.716;2024-03-06T10:07:49;27.13;;;17.63;;
13959;SDS011;7052;51.050;3.716;2024-03-06T10:10:18;28.47;;;19.07;;
13959;SDS011;7052;51.050;3.716;2024-03-06T10:12:45;27.30;;;17.67;;
13959;SDS011;7052;51.050;3.716;2024-03-06T10:15:13;23.30;;;18.27;;
13959;SDS011;7052;51.050;3.716;2024-03-06T10:17:40;25.63;;;18.83;;
13959;SDS011;7052;51.050;3.716;2024-03-06T10:20:17;23.70;;;19.23;;
13959;SDS011;7052;51.050;3.716;2024-03-06T10:22:48;25.53;;;18.83;;
13959;SDS011;7052;51.050;3.716;2024-03-06T10:25:17;24.97;;;17.10;;
13959;SDS011;7052;51.050;3.716;2024-03-06T10:27:45;22.17;;;16.07;;
13959;SDS011;7052;51.050;3.716;2024-03-06T10:30:12;22.70;;;17.13;;
13959;SDS011;7052;51.050;3.716;2024-03-06T10:32:41;29.37;;;17.80;;
13959;SDS011;7052;51.050;3.716;2024-03-06T10:35:17;24.87;;;16.83;;
13959;SDS011;7052;51.050;3.716;2024-03-06T10:37:45;31.73;;;18.17;;
13959;SDS011;7052;51.050;3.716;2024-03-06T10:40:14;29.20;;;17.50;;
13959;SDS011;7052;51.050;3.716;2024-03-06T10:42:44;21.43;;;15.97;;
13959;SDS011;7052;51.050;3.716;2024-03-06T10:45:13;21.87;;;17.63;;
13959;SDS011;7052;51.050;3.716;2024-03-06T10:47:42;21.90;;;16.50;;
13959;SDS011;7052;51.050;3.716;2024-03-06T10:50:13;24.20;;;16.57;;
13959;SDS011;7052;51.050;3.716;2024-03-06T10:52:41;21.87;;;15.77;;
13959;SDS011;7052;51.050;3.716;2024-03-06T10:55:14;19.07;;;15.53;;
13959;SDS011;7052;51.050;3.716;2024-03-06T10:57:42;24.73;;;16.23;;
13959;SDS011;7052;51.050;3.716;2024-03-06T11:00:12;19.37;;;15.73;;
13959;SDS011;7052;51.050;3.716;2024-03-06T11:02:45;20.17;;;15.63;;
13959;SDS011;7052;51.050;3.716;2024-03-06T11:05:14;19.87;;;15.77;;
13959;SDS011;7052;51.050;3.716;2024-03-06T11:07:42;29.70;;;16.07;;
13959;SDS011;7052;51.050;3.716;2024-03-06T11:10:09;21.37;;;16.07;;
13959;SDS011;7052;51.050;3.716;2024-03-06T11:12:42;20.37;;;15.07;;
13959;SDS011;7052;51.050;3.716;2024-03-06T11:15:13;16.60;;;13.17;;
13959;SDS011;7052;51.050;3.716;2024-03-06T11:17:42;21.27;;;13.53;;
13959;SDS011;7052;51.050;3.716;2024-03-06T11:20:13;20.03;;;14.90;;
13959;SDS011;7052;51.050;3.716;2024-03-06T11:28:31;18.83;;;13.67;;
13959;SDS011;7052;51.050;3.716;2024-03-06T11:31:02;19.30;;;13.37;;
13959;SDS011;7052;51.050;3.716;2024-03-06T11:33:37;17.43;;;12.40;;
13959;SDS011;7052;51.050;3.716;2024-03-06T11:36:14;11.03;;;8.43;;
13959;SDS011;7052;51.050;3.716;2024-03-06T11:38:52;8.17;;;7.37;;
13959;SDS011;7052;51.050;3.716;2024-03-06T11:41:21;7.27;;;6.20;;
13959;SDS011;7052;51.050;3.716;2024-03-06T11:43:52;9.37;;;7.80;;
13959;SDS011;7052;51.050;3.716;2024-03-06T11:46:20;10.77;;;7.70;;
13959;SDS011;7052;51.050;3.716;2024-03-06T11:48:53;11.67;;;7.77;;
13959;SDS011;7052;51.050;3.716;2024-03-06T11:51:21;13.27;;;8.03;;
13959;SDS011;7052;51.050;3.716;2024-03-06T11:53:51;8.00;;;6.87;;
13959;SDS011;7052;51.050;3.716;2024-03-06T11:56:19;9.20;;;7.23;;
13959;SDS011;7052;51.050;3.716;2024-03-06T11:58:47;20.00;;;9.30;;
13959;SDS011;7052;51.050;3.716;2024-03-06T12:01:15;12.47;;;8.40;;
13959;SDS011;7052;51.050;3.716;2024-03-06T12:03:43;9.00;;;7.20;;
13959;SDS011;7052;51.050;3.716;2024-03-06T12:06:10;14.97;;;7.50;;
13959;SDS011;7052;51.050;3.716;2024-03-06T12:08:38;13.13;;;8.97;;
13959;SDS011;7052;51.050;3.716;2024-03-06T12:11:06;14.13;;;8.57;;
13959;SDS011;7052;51.050;3.716;2024-03-06T12:13:33;10.80;;;8.13;;
13959;SDS011;7052;51.050;3.716;2024-03-06T12:16:05;10.47;;;8.20;;
13959;SDS011;7052;51.050;3.716;2024-03-06T12:18:34;10.57;;;8.63;;
13959;SDS011;7052;51.050;3.716;2024-03-06T12:21:01;11.57;;;8.63;;
13959;SDS011;7052;51.050;3.716;2024-03-06T12:23:29;14.87;;;7.73;;
13959;SDS011;7052;51.050;3.716;2024-03-06T12:26:02;12.27;;;8.52;;
13959;SDS011;7052;51.050;3.716;2024-03-06T12:28:30;8.10;;;7.30;;
13959;SDS011;7052;51.050;3.716;2024-03-06T12:31:01;10.60;;;7.20;;
13959;SDS011;7052;51.050;3.716;2024-03-06T12:33:29;14.43;;;9.10;;
13959;SDS011;7052;51.050;3.716;2024-03-06T12:36:04;10.93;;;7.57;;
13959;SDS011;7052;51.050;3.716;2024-03-06T12:38:35;9.43;;;7.70;;
13959;SDS011;7052;51.050;3.716;2024-03-06T12:41:02;11.33;;;7.63;;
13959;SDS011;7052;51.050;3.716;2024-03-06T12:43:32;8.70;;;7.17;;
13959;SDS011;7052;51.050;3.716;2024-03-06T12:45:59;9.37;;;6.67;;
13959;SDS011;7052;51.050;3.716;2024-03-06T12:48:27;12.60;;;6.83;;
13959;SDS011;7052;51.050;3.716;2024-03-06T12:50:55;8.00;;;6.40;;
13959;SDS011;7052;51.050;3.716;2024-03-06T12:53:31;13.83;;;5.93;;
13959;SDS011;7052;51.050;3.716;2024-03-06T12:55:58;6.77;;;4.63;;
13959;SDS011;7052;51.050;3.716;2024-03-06T12:58:25;5.35;;;4.40;;
13959;SDS011;7052;51.050;3.716;2024-03-06T13:00:51;8.10;;;4.73;;
13959;SDS011;7052;51.050;3.716;2024-03-06T13:03:19;7.80;;;4.43;;
13959;SDS011;7052;51.050;3.716;2024-03-06T13:05:47;5.53;;;3.40;;
13959;SDS011;7052;51.050;3.716;2024-03-06T13:08:13;7.68;;;4.95;;
13959;SDS011;7052;51.050;3.716;2024-03-06T13:10:43;7.27;;;4.73;;
13959;SDS011;7052;51.050;3.716;2024-03-06T13:13:12;8.85;;;5.10;;
13959;SDS011;7052;51.050;3.716;2024-03-06T13:15:38;6.53;;;4.80;;
13959;SDS011;7052;51.050;3.716;2024-03-06T13:18:05;6.15;;;4.93;;
13959;SDS011;7052;51.050;3.716;2024-03-06T13:20:33;9.90;;;5.15;;
13959;SDS011;7052;51.050;3.716;2024-03-06T13:23:00;9.50;;;5.85;;
13959;SDS011;7052;51.050;3.716;2024-03-06T13:25:27;7.30;;;5.20;;
13959;SDS011;7052;51.050;3.716;2024-03-06T13:27:55;7.22;;;5.40;;
13959;SDS011;7052;51.050;3.716;2024-03-06T13:30:24;7.72;;;4.55;;
13959;SDS011;7052;51.050;3.716;2024-03-06T13:32:51;9.88;;;5.10;;
13959;SDS011;7052;51.050;3.716;2024-03-06T13:35:19;9.30;;;5.45;;
13959;SDS011;7052;51.050;3.716;2024-03-06T13:37:47;8.68;;;5.50;;
13959;SDS011;7052;51.050;3.716;2024-03-06T13:40:14;7.97;;;4.90;;
13959;SDS011;7052;51.050;3.716;2024-03-06T13:42:44;6.82;;;4.10;;
13959;SDS011;7052;51.050;3.716;2024-03-06T13:45:14;5.07;;;4.20;;
13959;SDS011;7052;51.050;3.716;2024-03-06T13:47:41;13.38;;;6.80;;
13959;SDS011;7052;51.050;3.716;2024-03-06T13:50:10;13.23;;;5.97;;
13959;SDS011;7052;51.050;3.716;2024-03-06T13:52:37;8.27;;;5.00;;
13959;SDS011;7052;51.050;3.716;2024-03-06T13:55:06;10.40;;;6.05;;
13959;SDS011;7052;51.050;3.716;2024-03-06T13:57:34;6.03;;;5.32;;
13959;SDS011;7052;51.050;3.716;2024-03-06T14:00:03;10.80;;;6.10;;
13959;SDS011;7052;51.050;3.716;2024-03-06T14:02:32;9.17;;;5.90;;
13959;SDS011;7052;51.050;3.716;2024-03-06T14:04:59;7.53;;;5.63;;
13959;SDS011;7052;51.050;3.716;2024-03-06T14:07:26;7.30;;;5.70;;
13959;SDS011;7052;51.050;3.716;2024-03-06T14:09:53;6.82;;;5.35;;
13959;SDS011;7052;51.050;3.716;2024-03-06T14:12:22;10.38;;;5.78;;
13959;SDS011;7052;51.050;3.716;2024-03-06T14:14:49;8.68;;;5.47;;
13959;SDS011;7052;51.050;3.716;2024-03-06T14:17:16;6.85;;;4.82;;
13959;SDS011;7052;51.050;3.716;2024-03-06T14:19:44;11.52;;;5.45;;
13959;SDS011;7052;51.050;3.716;2024-03-06T14:22:11;6.63;;;4.85;;
13959;SDS011;7052;51.050;3.716;2024-03-06T14:24:38;8.85;;;5.97;;
13959;SDS011;7052;51.050;3.716;2024-03-06T14:27:06;7.77;;;5.57;;
13959;SDS011;7052;51.050;3.716;2024-03-06T14:29:33;6.95;;;5.18;;
13959;SDS011;7052;51.050;3.716;2024-03-06T14:32:00;16.17;;;5.40;;
13959;SDS011;7052;51.050;3.716;2024-03-06T14:34:27;74.97;;;10.80;;
13959;SDS011;7052;51.050;3.716;2024-03-06T14:36:56;13.88;;;6.65;;
13959;SDS011;7052;51.050;3.716;2024-03-06T14:39:23;7.63;;;5.67;;
13959;SDS011;7052;51.050;3.716;2024-03-06T14:41:50;9.33;;;5.80;;
13959;SDS011;7052;51.050;3.716;2024-03-06T14:44:17;18.47;;;6.97;;
13959;SDS011;7052;51.050;3.716;2024-03-06T14:46:46;11.20;;;5.43;;
13959;SDS011;7052;51.050;3.716;2024-03-06T14:49:13;8.73;;;5.45;;
13959;SDS011;7052;51.050;3.716;2024-03-06T14:51:44;7.43;;;5.60;;
13959;SDS011;7052;51.050;3.716;2024-03-06T14:54:12;8.77;;;5.20;;
13959;SDS011;7052;51.050;3.716;2024-03-06T14:56:40;13.40;;;6.80;;